createdAt,value
2023-01-05T00:03:26.932Z,79.97
2023-01-05T00:08:36.406Z,79.53
2023-01-05T00:13:58.292Z,79.34
2023-01-05T00:19:19.486Z,80.06
2023-01-05T00:24:22.003Z,79.25
2023-01-05T00:29:24.523Z,78.85
2023-01-05T00:34:26.976Z,79.18
2023-01-05T00:39:29.431Z,78.37
2023-01-05T00:44:31.907Z,78.07
2023-01-05T00:49:34.495Z,78.34
2023-01-05T00:54:36.949Z,78.32
2023-01-05T00:59:39.943Z,78.18
2023-01-05T01:04:42.493Z,78.17
2023-01-05T01:09:44.962Z,78.21
2023-01-05T01:14:48.595Z,78.00
2023-01-05T01:19:51.167Z,78.03
2023-01-05T01:24:53.697Z,77.87
2023-01-05T01:29:59.227Z,78.34
2023-01-05T01:35:01.748Z,78.75
2023-01-05T01:40:05.461Z,78.59
2023-01-05T01:45:21.681Z,78.99
2023-01-05T01:50:24.326Z,78.71
2023-01-05T01:55:27.733Z,78.98
2023-01-05T02:00:30.345Z,78.83
2023-01-05T02:05:33.459Z,79.08
2023-01-05T02:10:49.076Z,79.51
2023-01-05T02:16:02.205Z,79.71
2023-01-05T02:21:23.466Z,80.37
2023-01-05T02:26:47.513Z,80.55
2023-01-05T02:31:58.229Z,81.68
2023-01-05T02:37:04.945Z,81.71
2023-01-05T02:42:14.480Z,81.86
2023-01-05T02:47:28.269Z,82.23
2023-01-05T02:52:36.391Z,82.63
2023-01-05T02:57:47.423Z,82.97
2023-01-05T03:02:56.313Z,82.95
2023-01-05T03:08:08.333Z,83.40
2023-01-05T03:13:34.704Z,83.82
2023-01-05T03:19:00.318Z,83.99
2023-01-05T03:24:22.645Z,83.97
2023-01-05T03:29:46.258Z,84.11
2023-01-05T03:35:12.080Z,84.22
2023-01-05T03:40:22.753Z,84.51
2023-01-05T03:45:28.960Z,84.18
2023-01-05T03:50:31.550Z,84.11
2023-01-05T03:55:35.429Z,83.83
2023-01-05T04:00:38.058Z,84.20
2023-01-05T04:05:44.721Z,83.85
2023-01-05T04:10:47.779Z,83.38
2023-01-05T04:15:50.532Z,82.65
2023-01-05T04:20:53.846Z,82.77
2023-01-05T04:25:57.604Z,82.14
2023-01-05T04:31:00.576Z,81.48
2023-01-05T04:36:05.441Z,82.21
2023-01-05T04:41:07.975Z,81.49
2023-01-05T04:46:10.668Z,81.62
2023-01-05T04:51:13.551Z,81.35
2023-01-05T04:56:16.192Z,80.97
2023-01-05T05:01:20.526Z,80.94
2023-01-05T05:06:27.520Z,80.33
2023-01-05T05:11:31.786Z,80.45
2023-01-05T05:16:34.357Z,81.06
2023-01-05T05:21:37.630Z,81.23
2023-01-05T05:26:40.577Z,80.72
2023-01-05T05:31:43.402Z,80.81
2023-01-05T05:36:45.873Z,80.69
2023-01-05T05:41:48.428Z,80.57
2023-01-05T05:46:51.151Z,80.19
2023-01-05T05:51:53.698Z,80.55
2023-01-05T05:56:56.206Z,80.11
2023-01-05T06:01:58.827Z,80.16
2023-01-05T06:07:01.331Z,81.18
2023-01-05T06:12:03.939Z,80.41
2023-01-05T06:17:06.529Z,80.83
2023-01-05T06:22:08.979Z,80.71
2023-01-05T06:27:11.467Z,81.08
2023-01-05T06:32:13.926Z,81.15
2023-01-05T06:37:16.344Z,81.21
2023-01-05T06:42:23.280Z,81.29
2023-01-05T06:47:26.119Z,81.41
2023-01-05T06:52:28.572Z,80.97
2023-01-05T06:57:31.010Z,81.20
2023-01-05T07:02:33.587Z,80.74
2023-01-05T07:07:36.313Z,80.38
2023-01-05T07:12:39.175Z,80.04
2023-01-05T07:17:41.643Z,80.92
2023-01-05T07:22:44.052Z,81.26
2023-01-05T07:27:50.535Z,81.05
2023-01-05T07:32:53.070Z,80.99
2023-01-05T07:37:58.858Z,80.68
2023-01-05T07:43:01.625Z,80.45
2023-01-05T07:48:04.293Z,80.47
2023-01-05T07:53:06.768Z,81.44
2023-01-05T07:58:09.244Z,81.47
2023-01-05T08:03:11.619Z,82.07
2023-01-05T08:08:19.073Z,81.42
2023-01-05T08:13:43.647Z,81.87
2023-01-05T08:18:46.204Z,82.19
2023-01-05T08:23:49.816Z,82.39
2023-01-05T08:28:52.785Z,82.39
2023-01-05T08:33:56.102Z,82.17
2023-01-05T08:38:59.049Z,82.33
2023-01-05T08:44:02.019Z,83.03
2023-01-05T08:49:07.528Z,83.31
2023-01-05T08:54:09.951Z,83.85
2023-01-05T08:59:13.335Z,83.14
2023-01-05T09:04:16.364Z,83.70
2023-01-05T09:09:18.963Z,83.53
2023-01-05T09:14:21.530Z,84.20
2023-01-05T09:19:24.180Z,84.29
2023-01-05T09:24:26.824Z,84.09
2023-01-05T09:29:29.318Z,84.12
2023-01-05T09:34:32.097Z,83.82
2023-01-05T09:39:34.599Z,84.45
2023-01-05T09:44:38.119Z,84.32
2023-01-05T09:49:40.656Z,84.57
2023-01-05T09:54:43.133Z,84.85
2023-01-05T09:59:52.486Z,84.71
2023-01-05T10:04:56.535Z,85.52
2023-01-05T10:10:00.125Z,85.23
2023-01-05T10:15:04.730Z,85.70
2023-01-05T10:20:14.608Z,85.66
2023-01-05T10:25:22.427Z,85.39
2023-01-05T10:30:26.216Z,85.93
2023-01-05T10:36:00.306Z,85.42
2023-01-05T10:41:06.491Z,85.41
2023-01-05T10:51:34.251Z,85.40
2023-01-05T10:56:36.805Z,85.21
2023-01-05T11:01:39.453Z,85.48
2023-01-05T11:06:42.013Z,85.34
2023-01-05T11:11:44.879Z,86.07
2023-01-05T11:16:48.465Z,86.07
2023-01-05T11:21:54.032Z,85.51
2023-01-05T11:27:03.783Z,85.77
2023-01-05T11:32:06.893Z,85.49
2023-01-05T11:37:12.489Z,86.19
2023-01-05T11:42:20.020Z,85.63
2023-01-05T11:47:27.235Z,86.61
2023-01-05T11:52:37.169Z,86.64
2023-01-05T11:57:39.698Z,86.92
2023-01-05T12:03:05.491Z,86.95
2023-01-05T12:08:12.543Z,86.88
2023-01-05T12:13:29.034Z,86.47
2023-01-05T12:18:49.928Z,87.23
2023-01-05T12:24:11.031Z,86.81
2023-01-05T12:31:06.403Z,87.23
2023-01-05T12:35:17.804Z,87.05
2023-01-05T12:40:24.110Z,87.93
2023-01-05T12:45:45.035Z,87.81
2023-01-05T12:50:49.223Z,88.03
2023-01-05T12:55:56.068Z,87.83
2023-01-05T13:00:58.710Z,87.74
2023-01-05T13:06:07.208Z,87.38
2023-01-05T13:11:28.031Z,87.11
2023-01-05T13:16:37.352Z,87.75
2023-01-05T13:21:40.295Z,87.84
2023-01-05T13:26:42.749Z,87.96
2023-01-05T13:31:48.237Z,87.58
2023-01-05T13:36:59.883Z,87.45
2023-01-05T13:42:23.656Z,87.55
2023-01-05T13:47:29.346Z,87.54
2023-01-05T13:52:38.589Z,87.47
2023-01-05T13:57:41.618Z,86.73
2023-01-05T14:02:44.979Z,86.79
2023-01-05T14:07:47.440Z,86.97
2023-01-05T14:12:50.668Z,87.40
2023-01-05T14:17:56.262Z,87.45
2023-01-05T14:22:58.854Z,88.30
2023-01-05T14:28:16.499Z,87.70
2023-01-05T14:33:19.893Z,87.86
2023-01-05T14:38:23.344Z,88.56
2023-01-05T14:43:32.880Z,87.94
2023-01-05T14:49:07.680Z,88.39
2023-01-05T14:54:10.350Z,88.70
2023-01-05T14:59:23.826Z,88.63
2023-01-05T15:04:28.506Z,88.09
2023-01-05T15:09:37.638Z,88.73
2023-01-05T15:14:47.342Z,88.24
2023-01-05T15:20:09.668Z,88.70
2023-01-05T15:25:30.979Z,87.98
2023-01-05T15:30:36.654Z,88.18
2023-01-05T15:35:50.133Z,88.53
2023-01-05T15:40:57.826Z,88.28
2023-01-05T15:46:00.732Z,88.78
2023-01-05T15:51:03.302Z,87.86
2023-01-05T15:56:07.171Z,88.08
2023-01-05T16:01:15.694Z,87.59
2023-01-05T16:06:20.543Z,87.74
2023-01-05T16:11:27.242Z,87.81
2023-01-05T16:21:55.264Z,87.78
2023-01-05T16:26:57.768Z,87.17
2023-01-05T16:32:00.410Z,87.16
2023-01-05T16:37:02.945Z,87.57
2023-01-05T16:42:25.142Z,87.12
2023-01-05T16:47:33.637Z,86.71
2023-01-05T16:52:46.050Z,87.11
2023-01-05T17:01:48.378Z,87.14
2023-01-05T17:06:51.856Z,87.14
2023-01-05T17:11:54.691Z,86.97
2023-01-05T17:17:02.852Z,87.05
2023-01-05T17:22:07.704Z,86.12
2023-01-05T17:32:20.780Z,86.06
2023-01-05T17:37:23.660Z,86.08
2023-01-05T17:42:44.315Z,86.50
2023-01-05T17:47:47.699Z,86.56
2023-01-05T17:52:50.590Z,86.59
2023-01-05T17:57:53.242Z,86.67
2023-01-05T18:02:56.420Z,86.67
2023-01-05T18:07:59.450Z,87.28
2023-01-05T18:13:02.279Z,87.32
2023-01-05T18:18:05.123Z,87.52
2023-01-05T18:23:08.676Z,87.32
2023-01-05T18:28:11.486Z,87.19
2023-01-05T18:33:14.152Z,87.13
2023-01-05T18:38:17.087Z,87.57
2023-01-05T18:43:19.834Z,87.84
2023-01-05T18:48:23.029Z,88.03
2023-01-05T18:53:25.873Z,88.10
2023-01-05T18:58:28.826Z,87.86
2023-01-05T19:03:31.783Z,88.09
2023-01-05T19:08:34.665Z,88.17
2023-01-05T19:13:38.110Z,88.44
2023-01-05T19:18:41.048Z,89.02
2023-01-05T19:23:43.783Z,88.99
2023-01-05T19:28:46.449Z,89.13
2023-01-05T19:33:50.021Z,89.00
2023-01-05T19:38:55.649Z,88.75
2023-01-05T19:43:58.530Z,88.27
2023-01-05T19:49:01.352Z,88.29
2023-01-05T19:54:05.146Z,87.77
2023-01-05T19:59:13.491Z,87.85
2023-01-05T20:04:16.391Z,87.24
2023-01-05T20:09:19.811Z,87.26
2023-01-05T20:14:27.640Z,87.05
2023-01-05T20:19:31.599Z,86.98
2023-01-05T20:24:36.517Z,86.54
2023-01-05T20:29:40.815Z,86.24
2023-01-05T20:34:45.416Z,85.63
2023-01-05T20:39:47.861Z,86.13
2023-01-05T20:44:51.173Z,85.76
2023-01-05T20:49:53.865Z,85.54
2023-01-05T20:54:56.829Z,86.00
2023-01-05T20:59:59.405Z,85.88
2023-01-05T21:05:02.290Z,85.77
2023-01-05T21:10:05.460Z,85.59
2023-01-05T21:15:08.721Z,85.75
2023-01-05T21:20:11.458Z,85.28
2023-01-05T21:25:14.573Z,85.23
2023-01-05T21:30:17.785Z,85.12
2023-01-05T21:35:20.472Z,84.81
2023-01-05T21:40:24.359Z,84.53
2023-01-05T21:45:27.106Z,84.67
2023-01-05T21:50:48.412Z,84.41
2023-01-05T21:56:09.845Z,84.09
2023-01-05T22:01:12.890Z,84.18
2023-01-05T22:06:15.640Z,83.90
2023-01-05T22:11:18.329Z,83.72
2023-01-05T22:16:21.093Z,83.95
2023-01-05T22:21:23.856Z,83.85
2023-01-05T22:26:26.601Z,83.81
2023-01-05T22:31:30.624Z,83.57
2023-01-05T22:36:33.348Z,83.77
2023-01-05T22:41:36.192Z,83.76
2023-01-05T22:46:38.835Z,83.87
2023-01-05T22:51:41.624Z,83.46
2023-01-05T22:56:44.225Z,83.56
2023-01-05T23:01:48.075Z,83.45
2023-01-05T23:06:50.723Z,83.36
2023-01-05T23:11:53.642Z,83.59
2023-01-05T23:16:56.408Z,83.13
2023-01-05T23:22:02.202Z,82.91
2023-01-05T23:27:04.819Z,83.01
2023-01-05T23:32:07.575Z,83.01
2023-01-05T23:37:10.306Z,82.99
2023-01-05T23:42:32.938Z,83.05
2023-01-05T23:47:35.561Z,83.14
2023-01-05T23:52:38.225Z,82.34
2023-01-05T23:57:40.873Z,82.25
